Terminal Aerodrome Forecast
Issued by NWS

Home | Current Version | Previous Version | Text Only | Print | Product List | Glossary On
Versions: 1 2 3 4 5 6 7 8 9 10 11 12 13 14 15 16 17 18 19 20 21 22 23 24 25 26 27 28
000
FTUS43 KDMX 210520
TAFFOD
TAF
KFOD 210520Z 2106/2206 15008KT P6SM SCT030 BKN050
     FM210800 14008KT 6SM BR VCTS SCT025CB BKN050
      TEMPO 2109/2111 4SM TSRA SCT007 OVC030CB
     FM211100 18008KT P6SM SCT025 BKN050
     FM211500 21009KT P6SM BKN080=

USA.gov is the U.S. government's official web portal to all federal, state and local government web resources and services.